Time;durP1;ratioP1;P1;durP2;ratioP2;P2;SDS_P1;SDS_P2;PMS_P1;PMS_P2;Temp;Humidity;BMP_temperature;BMP_pressure;BME280_temperature;BME280_humidity;BME280_pressure;Samples;Min_cycle;Max_cycle;Signal;HPM_P1;HPM_P2
2022/04/02 00:01:13;;;;;;;;;4.67;3.33;;;;;22.57;56.43;101126.72;5037699;28;45452;-69
2022/04/02 00:03:39;;;;;;;;;6.33;3.00;;;;;22.55;56.58;101128.59;5038218;28;45506;-69
2022/04/02 00:06:04;;;;;;;;;8.00;3.00;;;;;22.58;56.32;101131.19;5037163;28;45352;-69
2022/04/02 00:08:29;;;;;;;;;9.33;3.00;;;;;22.59;56.37;101132.09;5036718;28;62382;-69
2022/04/02 00:10:55;;;;;;;;;10.00;4.00;;;;;22.58;56.12;101136.56;5036491;28;61285;-68
2022/04/02 00:13:20;;;;;;;;;9.67;4.00;;;;;22.57;55.98;101137.50;5037339;28;45432;-69
2022/04/02 00:15:46;;;;;;;;;7.67;3.00;;;;;22.57;55.88;101133.94;5037550;28;47948;-69
2022/04/02 00:18:11;;;;;;;;;5.67;2.00;;;;;22.51;56.27;101121.56;5037277;28;47610;-68
2022/04/02 00:20:37;;;;;;;;;11.00;5.00;;;;;22.58;56.43;101141.06;5036956;28;45490;-68
2022/04/02 00:25:46;;;;;;;;;6.33;4.00;;;;;22.56;56.49;101129.50;5037850;28;45274;-68
2022/04/02 00:28:12;;;;;;;;;11.00;4.00;;;;;22.56;56.37;101126.78;5036642;28;64801;-68
2022/04/02 00:30:38;;;;;;;;;9.33;3.33;;;;;22.56;56.00;101134.88;5036920;28;50017;-68
2022/04/02 00:33:03;;;;;;;;;7.33;2.67;;;;;22.55;55.96;101134.00;5035916;28;45254;-69
2022/04/02 00:35:29;;;;;;;;;10.33;3.33;;;;;22.57;56.17;101134.81;5037497;28;45439;-68
2022/04/02 00:37:54;;;;;;;;;6.33;2.33;;;;;22.57;55.92;101134.81;5036924;28;64878;-68
2022/04/02 00:40:19;;;;;;;;;7.00;1.67;;;;;22.57;55.80;101139.31;5036108;28;57197;-68
2022/04/02 00:42:45;;;;;;;;;13.00;4.00;;;;;22.57;56.00;101134.81;5036856;28;57544;-69
2022/04/02 00:45:11;;;;;;;;;8.33;2.33;;;;;22.57;55.77;101131.25;5036788;28;55066;-68
2022/04/02 00:47:36;;;;;;;;;9.67;4.00;;;;;22.57;56.00;101132.13;5018589;28;46699;-68
2022/04/02 00:50:02;;;;;;;;;10.33;3.00;;;;;22.56;55.74;101130.34;5034062;28;58378;-68
2022/04/02 00:52:27;;;;;;;;;2.33;2.33;;;;;22.57;55.72;101125.84;5037058;28;45262;-68
2022/04/02 00:54:53;;;;;;;;;8.33;3.00;;;;;22.56;55.84;101119.59;5037191;28;45279;-68
2022/04/02 00:57:19;;;;;;;;;8.67;3.33;;;;;22.56;55.67;101116.91;5035627;28;61375;-68
2022/04/02 00:59:45;;;;;;;;;10.33;2.33;;;;;22.56;55.65;101126.78;5036536;28;45444;-69
2022/04/02 01:02:12;;;;;;;;;8.33;4.00;;;;;22.56;55.72;101124.97;5036824;28;45558;-68
2022/04/02 01:04:37;;;;;;;;;9.67;3.00;;;;;22.56;55.96;101132.19;5037284;28;45527;-68
2022/04/02 01:07:03;;;;;;;;;8.00;4.33;;;;;22.55;55.67;101127.72;5036650;28;46143;-68
2022/04/02 01:09:29;;;;;;;;;4.00;2.67;;;;;22.54;55.50;101134.06;5036534;28;45512;-68
2022/04/02 01:11:56;;;;;;;;;7.00;2.00;;;;;22.54;55.19;101131.34;5036498;28;45522;-68
2022/04/02 01:14:21;;;;;;;;;8.33;3.67;;;;;22.54;55.23;101128.66;5037256;28;45268;-68
2022/04/02 01:16:47;;;;;;;;;8.00;3.00;;;;;22.52;55.69;101126.00;5035883;28;46859;-68
2022/04/02 01:19:13;;;;;;;;;5.00;2.00;;;;;22.51;55.17;101126.06;5036525;28;45780;-68
2022/04/02 01:21:38;;;;;;;;;9.67;3.00;;;;;22.50;55.67;101125.19;5036208;28;56750;-68
2022/04/02 01:24:04;;;;;;;;;8.33;1.67;;;;;22.48;55.15;101119.88;5036322;28;45216;-68
2022/04/02 01:26:30;;;;;;;;;8.67;2.67;;;;;22.48;55.73;101121.69;5018549;28;46540;-68
2022/04/02 01:28:58;;;;;;;;;6.67;2.00;;;;;22.48;55.05;101122.56;5036119;28;45222;-68
2022/04/02 01:31:24;;;;;;;;;8.00;1.67;;;;;22.46;55.35;101124.41;5036651;28;45380;-68
2022/04/02 01:33:50;;;;;;;;;5.33;2.00;;;;;22.47;55.34;101130.66;5036475;28;45424;-68
2022/04/02 01:36:16;;;;;;;;;2.33;2.00;;;;;22.47;55.25;101127.97;5036558;28;45830;-68
2022/04/02 01:38:41;;;;;;;;;8.00;2.00;;;;;22.44;54.93;101125.41;5036197;28;45273;-68
2022/04/02 01:41:06;;;;;;;;;4.00;2.00;;;;;22.45;55.15;101135.22;5035863;28;46116;-68
2022/04/02 01:43:32;;;;;;;;;12.00;3.00;;;;;22.39;55.34;101127.38;5035658;28;56562;-68
2022/04/02 01:45:58;;;;;;;;;4.33;2.00;;;;;22.44;55.26;101138.84;5036021;28;46581;-68
2022/04/02 01:48:24;;;;;;;;;5.00;1.67;;;;;22.43;55.41;101137.09;5035041;28;45447;-68
2022/04/02 01:50:50;;;;;;;;;12.33;2.00;;;;;22.43;55.48;101151.44;5034673;28;45471;-68
2022/04/02 01:53:15;;;;;;;;;8.00;2.67;;;;;22.42;55.13;101144.25;5036044;28;45269;-68
2022/04/02 01:55:41;;;;;;;;;11.33;2.67;;;;;22.41;55.45;101145.19;5035876;28;46681;-68
2022/04/02 01:58:06;;;;;;;;;2.67;2.00;;;;;22.41;54.98;101136.25;5035362;28;57532;-68
2022/04/02 02:00:32;;;;;;;;;3.67;2.67;;;;;22.37;55.02;101143.56;5035476;28;55702;-68
2022/04/02 02:02:57;;;;;;;;;4.00;1.00;;;;;22.38;55.30;101148.00;5036311;28;45268;-68
2022/04/02 02:05:22;;;;;;;;;5.67;3.00;;;;;22.38;55.02;101156.09;5034863;28;62594;-68
2022/04/02 02:07:51;;;;;;;;;4.00;1.33;;;;;22.36;55.41;101152.53;5036065;28;45376;-69
2022/04/02 02:10:17;;;;;;;;;4.00;3.00;;;;;22.37;54.84;101162.41;5034834;28;45627;-69
2022/04/02 02:12:42;;;;;;;;;1.67;0.33;;;;;22.37;54.67;101156.13;5035853;28;45207;-69
2022/04/02 02:15:08;;;;;;;;;3.00;1.00;;;;;22.36;54.97;101159.75;5035508;28;60320;-68
2022/04/02 02:17:34;;;;;;;;;4.00;1.33;;;;;22.35;55.29;101156.16;5035549;28;46035;-69
2022/04/02 02:19:59;;;;;;;;;9.33;2.33;;;;;22.33;55.06;101159.84;5035921;28;45462;-68
2022/04/02 02:22:24;;;;;;;;;10.67;3.00;;;;;22.34;54.67;101159.81;5017993;28;45373;-69
2022/04/02 02:24:50;;;;;;;;;2.33;2.00;;;;;22.33;54.80;101159.84;5034382;28;47533;-69
2022/04/02 02:27:15;;;;;;;;;3.00;2.00;;;;;22.34;54.79;101169.69;5036112;28;45158;-69
2022/04/02 02:29:41;;;;;;;;;7.33;3.00;;;;;22.33;54.38;101160.72;5035073;28;49947;-68
2022/04/02 02:32:07;;;;;;;;;3.67;1.00;;;;;22.31;54.88;101157.19;5034914;28;45502;-68
2022/04/02 02:37:16;;;;;;;;;7.67;2.00;;;;;22.31;54.96;101159.88;5035076;28;45431;-69
2022/04/02 02:39:42;;;;;;;;;7.33;1.00;;;;;22.31;54.88;101162.56;5035215;28;45490;-69
2022/04/02 02:42:08;;;;;;;;;7.33;2.00;;;;;22.31;55.04;101165.25;5035768;28;45587;-68
2022/04/02 02:44:33;;;;;;;;;5.00;3.00;;;;;22.31;54.50;101167.97;5035289;28;45444;-68
2022/04/02 02:46:58;;;;;;;;;6.00;2.00;;;;;22.31;55.03;101170.66;5034769;28;60650;-69
2022/04/02 02:49:24;;;;;;;;;8.67;2.00;;;;;22.30;54.44;101170.69;5034798;28;45495;-69
2022/04/02 02:51:49;;;;;;;;;5.33;2.00;;;;;22.28;54.94;101170.75;5034754;28;54136;-69
2022/04/02 02:54:15;;;;;;;;;10.33;2.00;;;;;22.29;54.59;101175.22;5035309;28;45730;-69
2022/04/02 02:56:40;;;;;;;;;8.67;3.67;;;;;22.29;54.45;101180.59;5034740;28;61399;-69
2022/04/02 02:59:05;;;;;;;;;3.00;2.00;;;;;22.29;54.40;101175.22;5035885;28;45435;-68
2022/04/02 03:01:32;;;;;;;;;6.67;2.00;;;;;22.29;54.94;101180.59;5035340;28;45453;-69
2022/04/02 03:03:57;;;;;;;;;6.67;3.00;;;;;22.27;54.59;101185.16;5035361;28;45981;-68
2022/04/02 03:06:23;;;;;;;;;4.33;2.00;;;;;22.28;54.92;101188.72;5035231;28;45375;-68
2022/04/02 03:08:48;;;;;;;;;4.67;2.33;;;;;22.25;54.71;101187.00;5035810;28;45864;-69
2022/04/02 03:11:13;;;;;;;;;2.33;1.67;;;;;22.27;54.47;101184.28;5034943;28;58652;-69
2022/04/02 03:13:39;;;;;;;;;4.33;3.00;;;;;22.27;54.67;101190.53;5034285;28;46501;-69
2022/04/02 03:16:04;;;;;;;;;7.00;3.00;;;;;22.28;54.14;101184.22;5034849;28;45322;-68
2022/04/02 03:18:30;;;;;;;;;12.00;2.00;;;;;22.26;54.16;101188.75;5035190;28;47388;-68
2022/04/02 03:20:55;;;;;;;;;6.67;3.00;;;;;22.29;54.22;101194.03;5035566;28;56983;-69
2022/04/02 03:23:21;;;;;;;;;5.00;1.67;;;;;22.29;54.16;101198.53;5036858;28;60626;-68
2022/04/02 03:25:46;;;;;;;;;7.33;3.00;;;;;22.29;54.56;101190.47;5038202;28;45582;-69
2022/04/02 03:28:12;;;;;;;;;6.67;2.33;;;;;22.30;54.13;101201.19;5038729;28;45452;-69
2022/04/02 03:30:38;;;;;;;;;4.33;1.00;;;;;22.30;54.41;101197.59;5037318;28;45466;-68
2022/04/02 03:33:04;;;;;;;;;8.67;2.67;;;;;22.31;54.15;101192.16;5038054;28;46387;-68
2022/04/02 03:35:29;;;;;;;;;4.67;1.67;;;;;22.31;54.19;101193.97;5037090;28;45478;-69
2022/04/02 03:37:55;;;;;;;;;6.00;1.00;;;;;22.31;54.37;101191.28;5037322;28;57990;-69
2022/04/02 03:40:22;;;;;;;;;7.67;2.00;;;;;22.32;54.38;101198.44;5037989;28;45517;-68
2022/04/02 03:42:48;;;;;;;;;4.00;1.33;;;;;22.30;54.05;101189.53;5037700;28;47621;-69
2022/04/02 03:45:15;;;;;;;;;10.00;3.33;;;;;22.32;53.69;101201.13;5037747;28;45170;-68
2022/04/02 03:47:41;;;;;;;;;7.00;2.33;;;;;22.30;53.91;101193.09;5038243;28;45525;-68
2022/04/02 03:50:07;;;;;;;;;7.33;3.33;;;;;22.30;53.94;101192.22;5035916;28;45505;-68
2022/04/02 03:52:32;;;;;;;;;6.00;4.00;;;;;22.33;54.05;101202.91;5020368;28;46703;-68
2022/04/02 03:54:58;;;;;;;;;7.00;1.33;;;;;22.33;53.88;101208.28;5037848;28;45852;-68
2022/04/02 03:57:23;;;;;;;;;5.33;1.67;;;;;22.33;53.58;101205.59;5038132;28;45405;-68
2022/04/02 03:59:48;;;;;;;;;5.00;2.00;;;;;22.34;53.70;101219.00;5038075;28;45293;-68
2022/04/02 04:02:14;;;;;;;;;6.00;2.00;;;;;22.33;53.75;101205.59;5037575;28;61495;-68
2022/04/02 04:04:39;;;;;;;;;9.00;2.00;;;;;22.33;53.58;101206.47;5037603;28;45277;-68
2022/04/02 04:07:05;;;;;;;;;8.33;1.67;;;;;22.33;53.54;101203.78;5019940;28;45461;-68
2022/04/02 04:09:31;;;;;;;;;9.00;1.00;;;;;22.32;53.53;101199.34;5019685;28;45541;-68
2022/04/02 04:11:56;;;;;;;;;10.33;4.00;;;;;22.32;53.52;101199.34;5037334;28;47354;-68
2022/04/02 04:14:22;;;;;;;;;9.00;1.67;;;;;22.35;53.09;101209.97;5037386;28;57703;-68
2022/04/02 04:16:48;;;;;;;;;5.00;2.00;;;;;22.35;53.67;101204.59;5036534;28;45571;-68
2022/04/02 04:19:13;;;;;;;;;8.00;1.00;;;;;22.36;53.34;101216.25;5037562;28;45470;-68
2022/04/02 04:21:39;;;;;;;;;7.00;2.67;;;;;22.36;53.36;101222.50;5037286;28;45772;-69
2022/04/02 04:24:05;;;;;;;;;6.00;1.00;;;;;22.36;53.16;101214.44;5037367;28;45498;-68
2022/04/02 04:26:30;;;;;;;;;6.33;2.00;;;;;22.36;53.46;101227.00;5037908;28;45504;-68
2022/04/02 04:28:56;;;;;;;;;7.00;2.00;;;;;22.37;53.72;101223.38;5036945;28;45699;-68
2022/04/02 04:31:21;;;;;;;;;9.00;1.00;;;;;22.36;53.02;101230.56;5037050;28;46519;-68
2022/04/02 04:33:47;;;;;;;;;4.67;2.00;;;;;22.36;53.31;101230.56;5035923;28;45510;-68
2022/04/02 04:36:13;;;;;;;;;10.33;3.33;;;;;22.33;53.35;101232.50;5037478;28;45355;-67
2022/04/02 04:38:38;;;;;;;;;11.33;4.00;;;;;22.34;53.18;101240.50;5037239;28;45506;-68
2022/04/02 04:41:04;;;;;;;;;9.33;2.67;;;;;22.33;53.31;101228.00;5036829;28;47246;-68
2022/04/02 04:43:30;;;;;;;;;3.67;1.33;;;;;22.31;53.22;101229.84;5036280;28;60179;-68
2022/04/02 04:45:55;;;;;;;;;6.00;1.67;;;;;22.34;53.60;101239.63;5037276;28;45885;-68
2022/04/02 04:48:21;;;;;;;;;11.00;3.00;;;;;22.33;53.39;101243.25;5036250;28;45353;-68
2022/04/02 04:50:47;;;;;;;;;10.67;2.00;;;;;22.30;52.86;101240.66;5037004;28;49453;-68
2022/04/02 04:53:13;;;;;;;;;10.00;3.00;;;;;22.32;53.45;101250.47;5018774;28;45466;-68
2022/04/02 04:55:38;;;;;;;;;7.67;2.00;;;;;22.29;52.79;101253.22;5037390;28;45450;-68
2022/04/02 04:58:03;;;;;;;;;6.00;2.00;;;;;22.32;53.26;101257.63;5036095;28;54381;-67
2022/04/02 05:00:29;;;;;;;;;3.33;2.00;;;;;22.31;53.07;101259.44;5036070;28;57252;-68
2022/04/02 05:02:54;;;;;;;;;9.00;2.00;;;;;22.31;52.95;101263.94;5036110;28;60627;-68
2022/04/02 05:05:19;;;;;;;;;7.00;2.00;;;;;22.31;52.98;101261.25;5018149;28;57155;-68
2022/04/02 05:07:45;;;;;;;;;6.00;4.00;;;;;22.31;53.49;101264.81;5037134;28;45463;-68
2022/04/02 05:10:10;;;;;;;;;5.67;2.67;;;;;22.29;53.30;101264.00;5018144;28;61909;-68
2022/04/02 05:12:36;;;;;;;;;6.33;4.00;;;;;22.30;53.08;101276.50;5010613;28;45463;-68
2022/04/02 05:15:02;;;;;;;;;3.67;2.00;;;;;22.30;52.80;101276.50;5035607;28;45193;-68
2022/04/02 05:17:27;;;;;;;;;9.33;2.00;;;;;22.29;53.07;101277.44;5036589;28;45276;-68
2022/04/02 05:19:52;;;;;;;;;6.00;3.00;;;;;22.29;53.07;101280.13;5018853;28;45694;-68
2022/04/02 05:22:18;;;;;;;;;8.00;3.00;;;;;22.28;52.94;101285.56;5036105;28;54667;-68
2022/04/02 05:24:43;;;;;;;;;6.33;3.67;;;;;22.27;52.80;101289.19;5036473;28;45605;-68
2022/04/02 05:27:09;;;;;;;;;8.00;2.00;;;;;22.28;52.67;101291.81;5036162;28;51934;-68
2022/04/02 05:29:35;;;;;;;;;11.00;1.67;;;;;22.27;53.17;101291.88;5036014;28;45674;-68
2022/04/02 05:32:00;;;;;;;;;1.00;1.00;;;;;22.27;52.72;101294.56;5035200;28;45483;-68
2022/04/02 05:34:26;;;;;;;;;7.33;2.33;;;;;22.26;53.07;101290.97;5036336;28;45285;-68
2022/04/02 05:36:51;;;;;;;;;5.67;2.00;;;;;22.27;52.66;101298.13;5018511;28;45800;-68
2022/04/02 05:39:16;;;;;;;;;4.00;1.00;;;;;22.26;52.94;101295.47;5035752;28;60047;-68
2022/04/02 05:41:42;;;;;;;;;8.00;2.00;;;;;22.26;52.95;101296.34;5035048;28;59643;-68
2022/04/02 05:44:07;;;;;;;;;4.00;2.67;;;;;22.25;52.92;101305.34;5034420;28;52983;-68
2022/04/02 05:46:33;;;;;;;;;7.33;2.67;;;;;22.22;53.00;101305.47;5018343;28;53253;-68
2022/04/02 05:48:59;;;;;;;;;5.00;3.00;;;;;22.22;53.04;101309.03;5035354;28;47217;-68
2022/04/02 05:51:25;;;;;;;;;9.67;3.00;;;;;22.22;52.91;101308.16;5034446;28;60576;-68
2022/04/02 05:53:50;;;;;;;;;7.33;2.33;;;;;22.23;52.81;101321.56;5035165;28;45348;-68
2022/04/02 05:56:17;;;;;;;;;11.67;3.67;;;;;22.22;52.78;101313.53;5036360;28;45277;-68
2022/04/02 05:58:42;;;;;;;;;7.67;2.67;;;;;22.23;52.81;101317.97;5035829;28;47826;-68
2022/04/02 06:01:08;;;;;;;;;10.33;3.00;;;;;22.23;52.70;101320.66;5033895;28;45446;-68
2022/04/02 06:03:34;;;;;;;;;8.33;3.00;;;;;22.24;52.50;101322.44;5000873;28;57910;-67
2022/04/02 06:05:59;;;;;;;;;8.33;2.67;;;;;22.23;52.60;101326.06;5036083;28;45517;-67
2022/04/02 06:08:24;;;;;;;;;4.00;1.33;;;;;22.23;52.81;101335.00;5034654;28;60187;-67
2022/04/02 06:10:50;;;;;;;;;5.00;2.00;;;;;22.22;52.89;101326.97;5035354;28;60011;-68
2022/04/02 06:13:15;;;;;;;;;8.00;2.67;;;;;22.22;53.00;101329.69;5035173;28;54773;-68
2022/04/02 06:15:41;;;;;;;;;7.67;3.33;;;;;22.22;52.41;101338.63;5035021;28;55246;-67
2022/04/02 06:18:07;;;;;;;;;7.00;2.00;;;;;22.22;52.72;101335.94;5035330;28;47724;-68
2022/04/02 06:20:32;;;;;;;;;10.00;2.00;;;;;22.22;52.68;101343.13;5035510;28;45243;-67
2022/04/02 06:22:58;;;;;;;;;6.00;1.00;;;;;22.23;52.67;101334.13;5036231;28;45430;-68
2022/04/02 06:25:23;;;;;;;;;8.00;3.33;;;;;22.21;53.00;101342.25;5035336;28;45427;-67
2022/04/02 06:27:48;;;;;;;;;9.33;3.00;;;;;22.20;52.61;101345.84;5035584;28;64036;-67
2022/04/02 06:30:17;;;;;;;;;5.33;2.00;;;;;22.23;52.26;101350.25;5035559;28;45361;-68
2022/04/02 06:32:42;;;;;;;;;8.00;3.00;;;;;22.23;52.46;101356.53;5034704;28;45438;-68
2022/04/02 06:35:08;;;;;;;;;14.33;3.00;;;;;22.21;52.46;101358.38;5035977;28;45436;-68
2022/04/02 06:37:38;;;;;;;;;4.33;1.67;;;;;22.23;52.28;101361.03;5035236;28;46565;-68
2022/04/02 06:40:04;;;;;;;;;7.33;3.00;;;;;22.23;52.69;101353.84;5035379;28;45502;-68
2022/04/02 06:42:30;;;;;;;;;9.00;2.67;;;;;22.25;52.39;101363.66;5034889;28;45485;-68
2022/04/02 06:44:55;;;;;;;;;4.67;2.33;;;;;22.23;52.42;101361.91;5035536;28;45525;-68
2022/04/02 06:47:27;;;;;;;;;13.33;3.00;;;;;22.25;52.13;101363.66;5035043;28;45413;-68
2022/04/02 06:49:53;;;;;;;;;3.67;3.00;;;;;22.26;52.41;101368.13;5035078;28;45216;-68
2022/04/02 06:52:19;;;;;;;;;12.33;3.00;;;;;22.26;52.27;101368.13;5035866;28;45320;-69
2022/04/02 06:54:44;;;;;;;;;5.33;3.33;;;;;22.26;52.13;101368.13;5035402;28;51276;-68
2022/04/02 06:57:09;;;;;;;;;10.67;3.33;;;;;22.28;52.40;101374.34;5038962;28;46136;-68
2022/04/02 06:59:35;;;;;;;;;12.00;3.00;;;;;22.28;52.04;101385.13;5038719;28;61707;-68
2022/04/02 07:02:01;;;;;;;;;6.00;3.00;;;;;22.28;52.13;101380.59;5038140;28;59354;-69
2022/04/02 07:04:27;;;;;;;;;7.33;3.00;;;;;22.29;52.01;101386.88;5039030;28;45542;-68
2022/04/02 07:06:52;;;;;;;;;5.00;3.33;;;;;22.28;51.81;101383.31;5038363;28;46332;-68
2022/04/02 07:09:18;;;;;;;;;11.00;4.67;;;;;22.29;51.79;101382.38;5038638;28;58831;-68
2022/04/02 07:11:44;;;;;;;;;8.67;4.00;;;;;22.30;51.79;101388.63;5038455;28;45467;-68
2022/04/02 07:14:09;;;;;;;;;10.33;5.67;;;;;22.29;51.88;101387.75;5038735;28;45461;-68
2022/04/02 07:16:36;;;;;;;;;6.00;5.00;;;;;22.31;51.63;101390.38;5037908;28;46639;-68
2022/04/02 07:19:02;;;;;;;;;9.33;3.33;;;;;22.28;51.97;101407.50;5038669;28;45481;-68
2022/04/02 07:21:27;;;;;;;;;7.00;5.00;;;;;22.29;51.82;101403.88;5020744;28;45633;-69
2022/04/02 07:23:53;;;;;;;;;14.67;5.33;;;;;22.30;51.55;101394.88;5021250;28;46601;-68
2022/04/02 07:26:18;;;;;;;;;9.00;4.00;;;;;22.29;51.61;101394.94;5038846;28;45843;-68
2022/04/02 07:28:44;;;;;;;;;6.67;3.00;;;;;22.30;51.64;101402.97;5020896;28;45358;-68
2022/04/02 07:31:09;;;;;;;;;7.33;4.00;;;;;22.26;51.82;101403.97;5038299;28;45336;-68
2022/04/02 07:33:35;;;;;;;;;11.33;5.00;;;;;22.30;51.59;101394.88;5020355;28;45494;-68
2022/04/02 07:36:14;;;;;;;;;17.33;6.00;;;;;22.31;51.83;101409.22;5036034;28;61396;-69
2022/04/02 07:38:59;;;;;;;;;9.00;4.00;;;;;22.31;51.55;101410.09;5036567;28;45233;-68
2022/04/02 07:41:40;;;;;;;;;13.67;5.00;;;;;22.32;51.41;101405.59;5038099;28;45404;-68
2022/04/02 07:44:27;;;;;;;;;9.00;6.00;;;;;22.31;51.60;101410.09;5164086;22;45890;-68
2022/04/02 07:46:52;;;;;;;;;9.00;4.33;;;;;22.31;51.37;101411.91;5032168;28;46694;-68
2022/04/02 07:49:19;;;;;;;;;9.33;4.33;;;;;22.29;51.56;101414.66;5020722;28;45423;-68
2022/04/02 07:51:44;;;;;;;;;11.67;4.00;;;;;22.30;51.28;101413.72;5038175;28;45279;-69
2022/04/02 07:54:09;;;;;;;;;10.67;3.67;;;;;22.31;51.90;101414.59;5036263;28;54175;-69
2022/04/02 07:56:38;;;;;;;;;8.00;3.33;;;;;22.31;51.63;101414.59;5036094;28;58749;-68
2022/04/02 07:59:11;;;;;;;;;12.00;5.33;;;;;22.28;51.25;101412.91;5026539;28;45672;-69
2022/04/02 08:01:36;;;;;;;;;10.00;5.67;;;;;22.29;51.43;101422.72;5028191;28;45461;-66
2022/04/02 08:04:02;;;;;;;;;15.00;5.00;;;;;22.29;51.59;101421.84;5030191;28;56232;-67
2022/04/02 08:06:28;;;;;;;;;10.33;5.00;;;;;22.30;51.29;101423.59;5033262;28;47922;-66
2022/04/02 08:08:53;;;;;;;;;14.33;5.00;;;;;22.28;51.78;101429.03;5031613;28;45577;-72
2022/04/02 08:11:18;;;;;;;;;12.33;5.33;;;;;22.29;51.64;101428.09;5028952;28;57508;-65
2022/04/02 08:13:44;;;;;;;;;11.67;6.00;;;;;22.30;51.30;101431.69;5032674;28;51233;-66
2022/04/02 08:16:09;;;;;;;;;14.33;8.00;;;;;22.29;51.54;101424.53;5031681;28;47259;-69
2022/04/02 08:18:35;;;;;;;;;13.00;7.00;;;;;22.28;51.53;101428.16;5032886;28;45960;-63
2022/04/02 08:21:00;;;;;;;;;22.33;9.00;;;;;22.31;51.22;101437.00;5029391;28;45403;-60
2022/04/02 08:23:26;;;;;;;;;14.00;6.67;;;;;22.32;51.07;101437.88;5015980;28;53075;-61
2022/04/02 08:26:11;;;;;;;;;15.00;9.67;;;;;22.33;51.67;101440.56;5033393;28;46428;-63
2022/04/02 08:29:00;;;;;;;;;12.67;6.00;;;;;22.35;51.45;101430.63;5032162;28;45521;-61
2022/04/02 08:31:47;;;;;;;;;18.67;9.00;;;;;22.34;51.24;101438.75;5030485;28;45431;-62
2022/04/02 08:34:12;;;;;;;;;11.67;7.33;;;;;22.37;51.41;101439.56;5015163;28;45509;-63
2022/04/02 08:37:02;;;;;;;;;17.67;11.00;;;;;22.40;51.43;101444.81;5033800;28;45883;-64
2022/04/02 08:39:39;;;;;;;;;21.67;8.00;;;;;22.41;51.37;101449.28;5028195;28;45429;-63
2022/04/02 08:42:16;;;;;;;;;15.33;10.67;;;;;22.44;50.86;101459.09;5032935;28;45442;-63
2022/04/02 08:45:08;;;;;;;;;21.67;9.67;;;;;22.44;51.26;101449.19;5022210;28;45421;-65
2022/04/02 08:47:54;;;;;;;;;20.67;10.67;;;;;22.45;50.69;101448.28;5034941;28;47701;-65
2022/04/02 08:50:21;;;;;;;;;16.00;13.00;;;;;22.46;50.65;101446.47;5033331;28;45441;-64
2022/04/02 08:52:55;;;;;;;;;18.67;9.00;;;;;22.47;50.66;101449.09;5006129;28;45500;-65
2022/04/02 08:55:41;;;;;;;;;23.00;10.67;;;;;22.47;50.39;101448.22;5036250;28;45442;-64
2022/04/02 08:58:11;;;;;;;;;22.67;8.00;;;;;22.48;51.05;101445.50;5036134;28;46354;-64
2022/04/02 09:00:41;;;;;;;;;18.00;12.67;;;;;22.49;50.63;101447.25;5032504;28;45364;-64
2022/04/02 09:03:41;;;;;;;;;15.00;7.67;;;;;22.49;50.59;101463.41;5029473;28;45287;-65
2022/04/02 09:06:15;;;;;;;;;17.67;11.33;;;;;22.51;50.37;101465.16;5020678;28;45609;-65
2022/04/02 09:08:55;;;;;;;;;19.00;10.67;;;;;22.51;50.35;101457.97;5035979;28;46828;-64
2022/04/02 09:11:23;;;;;;;;;21.67;12.00;;;;;22.53;50.62;101460.63;5034242;28;45490;-62
2022/04/02 09:14:26;;;;;;;;;15.00;8.67;;;;;22.52;50.50;101459.72;5035709;28;45419;-62
2022/04/02 09:16:59;;;;;;;;;15.33;9.00;;;;;22.52;50.13;101461.56;5032436;28;45152;-62
2022/04/02 09:19:30;;;;;;;;;15.67;9.33;;;;;22.51;50.42;101462.47;5033357;28;47209;-63
2022/04/02 09:22:13;;;;;;;;;12.00;7.00;;;;;22.48;50.32;101458.97;5028441;28;46762;-62
2022/04/02 09:25:00;;;;;;;;;20.00;9.67;;;;;22.52;50.42;101464.25;5027550;28;45531;-62
2022/04/02 09:27:28;;;;;;;;;20.33;8.00;;;;;22.51;49.93;101463.34;5032472;28;45490;-62
2022/04/02 09:30:09;;;;;;;;;20.00;7.67;;;;;22.52;50.20;101467.81;5035270;28;47656;-62
2022/04/02 09:33:02;;;;;;;;;13.33;7.33;;;;;22.53;49.92;101476.75;5016214;28;45333;-61
2022/04/02 09:35:59;;;;;;;;;15.33;7.00;;;;;22.53;50.30;101466.91;5030757;28;45480;-63
2022/04/02 09:38:42;;;;;;;;;11.67;6.00;;;;;22.53;50.22;101461.53;5027120;28;45543;-63
2022/04/02 09:41:24;;;;;;;;;17.67;8.00;;;;;22.51;50.01;101463.34;5032005;28;45843;-64
2022/04/02 09:44:08;;;;;;;;;17.67;8.00;;;;;22.54;49.88;101467.78;5018588;28;45438;-62
2022/04/02 09:46:40;;;;;;;;;13.00;5.67;;;;;22.54;49.58;101467.78;5028916;28;45509;-64
2022/04/02 09:49:36;;;;;;;;;18.67;10.00;;;;;22.54;50.16;101476.75;5034216;28;45339;-64
2022/04/02 09:52:06;;;;;;;;;18.00;9.67;;;;;22.55;49.77;101477.63;5002718;28;46520;-62
2022/04/02 09:54:43;;;;;;;;;10.33;8.00;;;;;22.56;49.90;101476.69;5036084;28;45911;-63
2022/04/02 09:57:14;;;;;;;;;16.33;7.67;;;;;22.56;49.56;101458.72;5030373;28;45642;-65
2022/04/02 10:00:00;;;;;;;;;16.67;9.67;;;;;22.56;49.31;101458.72;5033412;28;45511;-61
2022/04/02 10:02:54;;;;;;;;;14.00;6.00;;;;;22.56;49.41;101466.81;5011210;28;46768;-63
2022/04/02 10:05:24;;;;;;;;;18.00;6.67;;;;;22.56;49.62;101477.56;5035073;28;45468;-65
2022/04/02 10:07:53;;;;;;;;;23.67;10.00;;;;;22.57;49.49;101462.31;5035445;28;45609;-62
2022/04/02 10:10:19;;;;;;;;;11.67;8.00;;;;;22.56;49.52;101474.88;5032467;28;45554;-62
2022/04/02 10:12:47;;;;;;;;;22.00;10.00;;;;;22.55;49.43;101470.44;5026044;28;46712;-62
2022/04/02 10:15:14;;;;;;;;;21.00;8.67;;;;;22.58;49.67;101472.13;5035331;28;45275;-62
2022/04/02 10:17:39;;;;;;;;;19.67;11.00;;;;;22.57;49.27;101479.31;5031458;28;45456;-63
2022/04/02 10:20:05;;;;;;;;;19.00;9.00;;;;;22.58;49.22;101482.91;5035379;28;45410;-62
2022/04/02 10:29:53;;;;;;;;;16.67;8.00;;;;;22.59;48.76;101476.63;5025161;28;45459;-64
2022/04/02 10:32:32;;;;;;;;;15.67;8.00;;;;;22.58;48.86;101477.53;5033311;28;45473;-62
2022/04/02 10:35:05;;;;;;;;;14.33;6.33;;;;;22.60;49.05;101483.75;5033047;28;46145;-62
2022/04/02 10:37:53;;;;;;;;;12.67;8.00;;;;;22.60;48.72;101478.38;5035483;28;45565;-62
2022/04/02 10:40:20;;;;;;;;;17.33;6.33;;;;;22.60;48.71;101490.03;4996313;28;45517;-64
2022/04/02 10:43:06;;;;;;;;;12.00;4.33;;;;;22.60;48.96;101468.50;5050723;28;45592;-63
2022/04/02 10:45:35;;;;;;;;;14.67;7.67;;;;;22.60;48.76;101471.19;5025703;28;46564;-63
2022/04/02 10:48:08;;;;;;;;;11.00;5.67;;;;;22.59;48.57;101471.22;5022319;28;47058;-65
2022/04/02 10:50:34;;;;;;;;;8.67;5.33;;;;;22.62;48.85;101479.19;5026709;28;45601;-64
2022/04/02 10:53:00;;;;;;;;;15.00;5.00;;;;;22.62;48.61;101480.09;5031459;28;54974;-66
2022/04/02 10:55:26;;;;;;;;;12.33;6.00;;;;;22.61;48.78;101474.75;5031910;28;46888;-63
2022/04/02 10:57:51;;;;;;;;;10.33;5.33;;;;;22.60;48.38;101471.19;5013050;28;45496;-65
2022/04/02 11:00:17;;;;;;;;;13.33;7.00;;;;;22.61;48.68;101472.06;5025646;28;53136;-63
2022/04/02 11:02:46;;;;;;;;;11.33;7.00;;;;;22.60;48.35;101475.69;5027539;28;45629;-64
2022/04/02 11:05:14;;;;;;;;;7.33;5.00;;;;;22.59;48.21;101460.47;5025753;28;47686;-63
2022/04/02 11:07:44;;;;;;;;;7.00;4.33;;;;;22.57;48.63;101451.53;5026867;28;45631;-63
2022/04/02 11:10:16;;;;;;;;;8.00;5.33;;;;;22.58;48.24;101464.06;5028000;28;45862;-66
2022/04/02 11:12:44;;;;;;;;;14.67;9.00;;;;;22.57;48.36;101465.00;5026645;28;45626;-65
2022/04/02 11:15:11;;;;;;;;;13.00;5.33;;;;;22.55;48.40;101462.34;5029032;28;46409;-63
2022/04/02 11:17:41;;;;;;;;;12.00;5.00;;;;;22.54;48.69;101473.16;5027477;28;45811;-64
2022/04/02 11:20:09;;;;;;;;;23.00;11.33;;;;;22.52;48.90;101477.69;5032356;28;45403;-62
2022/04/02 11:22:42;;;;;;;;;13.67;7.00;;;;;22.51;48.40;101465.16;5024361;28;45863;-63
2022/04/02 11:25:10;;;;;;;;;15.33;6.67;;;;;22.50;48.35;101458.91;5030109;28;45548;-62
2022/04/02 11:27:37;;;;;;;;;17.00;7.67;;;;;22.52;48.39;101464.25;5029242;28;45889;-63
2022/04/02 11:30:10;;;;;;;;;10.00;5.33;;;;;22.51;48.09;101462.47;5032413;28;45604;-67
2022/04/02 11:32:40;;;;;;;;;13.00;6.00;;;;;22.52;48.16;101475.00;5033941;28;45439;-67
2022/04/02 11:35:07;;;;;;;;;15.00;8.33;;;;;22.53;48.03;101460.63;5033534;28;45773;-70
2022/04/02 11:37:32;;;;;;;;;13.33;7.00;;;;;22.56;48.07;101468.63;5033367;28;45371;-66
2022/04/02 11:40:02;;;;;;;;;14.67;7.00;;;;;22.54;48.18;101451.63;5014421;28;59890;-72